Time;durP1;ratioP1;P1;durP2;ratioP2;P2;SDS_P1;SDS_P2;PMS_P1;PMS_P2;Temp;Humidity;BMP_temperature;BMP_pressure;BME280_temperature;BME280_humidity;BME280_pressure;Samples;Min_cycle;Max_cycle;Signal;HPM_P1;HPM_P2
2022/10/26 00:01:48;;;;;;;;;;;12.30;99.90;;;;;;5032682;28;20307;-68
2022/10/26 00:04:15;;;;;;;;;;;12.30;99.90;;;;;;5032978;28;19925;-68
2022/10/26 00:06:41;;;;;;;;;;;12.30;99.90;;;;;;5033039;28;19925;-68
2022/10/26 00:09:08;;;;;;;;;;;12.30;99.90;;;;;;5033317;28;20277;-68
2022/10/26 00:11:35;;;;;;;;;;;12.30;99.90;;;;;;5032747;28;20394;-68
2022/10/26 00:14:03;;;;;;;;;;;12.30;99.90;;;;;;5032834;28;20411;-69
2022/10/26 00:16:30;;;;;;;;;;;12.30;99.90;;;;;;5032793;28;19925;-69
2022/10/26 00:18:56;;;;;;;;;;;12.30;99.90;;;;;;5032893;28;19925;-68
2022/10/26 00:21:23;;;;;;;;;;;12.30;99.90;;;;;;5032411;28;19936;-69
2022/10/26 00:23:50;;;;;;;;;;;12.30;99.90;;;;;;5032999;28;19925;-68
2022/10/26 00:26:16;;;;;;;;;;;12.20;99.90;;;;;;5035941;28;19931;-69
2022/10/26 00:28:43;;;;;;;;;;;12.20;99.90;;;;;;5032711;28;19929;-68
2022/10/26 00:31:13;;;;;;;;;;;12.20;99.90;;;;;;5032914;28;19925;-69
2022/10/26 00:33:40;;;;;;;;;;;12.20;99.90;;;;;;5032397;28;19931;-69
2022/10/26 00:36:08;;;;;;;;;;;12.20;99.90;;;;;;5032206;28;20033;-69
2022/10/26 00:38:34;;;;;;;;;;;12.20;99.90;;;;;;5012837;28;19932;-68
2022/10/26 00:41:01;;;;;;;;;;;12.20;99.90;;;;;;5021341;28;20291;-69
2022/10/26 00:43:35;;;;;;;;;;;12.20;99.90;;;;;;5043040;28;19925;-70
2022/10/26 00:46:03;;;;;;;;;;;12.20;99.90;;;;;;5032084;28;19925;-69
2022/10/26 00:48:34;;;;;;;;;;;12.20;99.90;;;;;;5032336;28;20039;-69
2022/10/26 00:51:02;;;;;;;;;;;12.20;99.90;;;;;;5033443;28;20299;-68
2022/10/26 00:53:29;;;;;;;;;;;12.20;99.90;;;;;;5052547;28;20011;-68
2022/10/26 00:55:56;;;;;;;;;;;12.20;99.90;;;;;;5051994;28;20306;-68
2022/10/26 00:58:23;;;;;;;;;;;12.20;99.90;;;;;;5042333;28;19925;-68
2022/10/26 01:00:51;;;;;;;;;;;12.20;99.90;;;;;;5026793;28;19931;-69
2022/10/26 01:03:18;;;;;;;;;;;12.20;99.90;;;;;;5031718;28;19931;-69
2022/10/26 01:05:46;;;;;;;;;;;12.20;99.90;;;;;;5032193;28;19932;-69
2022/10/26 01:08:14;;;;;;;;;;;12.20;99.90;;;;;;5032808;28;20391;-69
2022/10/26 01:10:41;;;;;;;;;;;12.20;99.90;;;;;;5036191;28;19932;-69
2022/10/26 01:13:08;;;;;;;;;;;12.20;99.90;;;;;;5039394;28;19931;-69
2022/10/26 01:15:39;;;;;;;;;;;12.20;99.90;;;;;;5045792;28;19924;-69
2022/10/26 01:18:10;;;;;;;;;;;12.20;99.90;;;;;;5037888;28;19931;-69
2022/10/26 01:20:42;;;;;;;;;;;12.20;99.90;;;;;;5035689;28;19925;-69
2022/10/26 01:23:13;;;;;;;;;;;12.20;99.90;;;;;;5043070;28;19925;-68
2022/10/26 01:25:52;;;;;;;;;;;12.10;99.90;;;;;;5045906;28;19925;-69
2022/10/26 01:28:25;;;;;;;;;;;12.10;99.90;;;;;;5055254;28;19932;-68
2022/10/26 01:30:54;;;;;;;;;;;12.10;99.90;;;;;;5054294;28;20594;-68
2022/10/26 01:33:29;;;;;;;;;;;12.10;99.90;;;;;;5051231;28;19925;-69
2022/10/26 01:36:02;;;;;;;;;;;12.10;99.90;;;;;;5046382;28;19971;-68
2022/10/26 01:38:32;;;;;;;;;;;12.10;99.90;;;;;;5043101;28;19964;-69
2022/10/26 01:41:01;;;;;;;;;;;12.00;99.90;;;;;;5020023;28;19933;-68
2022/10/26 01:43:28;;;;;;;;;;;12.10;99.90;;;;;;5048079;28;20391;-68
2022/10/26 01:45:57;;;;;;;;;;;12.10;99.90;;;;;;5050752;28;20307;-69
2022/10/26 01:48:25;;;;;;;;;;;12.10;99.90;;;;;;5034692;28;19931;-69
2022/10/26 01:50:53;;;;;;;;;;;12.10;99.90;;;;;;5049409;28;19925;-69
2022/10/26 01:53:20;;;;;;;;;;;12.10;99.90;;;;;;5052811;28;20011;-69
2022/10/26 01:55:48;;;;;;;;;;;12.10;99.90;;;;;;5053698;28;20019;-69
2022/10/26 01:58:31;;;;;;;;;;;12.10;99.90;;;;;;5040267;28;19925;-69
2022/10/26 02:01:04;;;;;;;;;;;12.10;99.90;;;;;;5053449;28;19933;-69
2022/10/26 02:03:37;;;;;;;;;;;12.10;99.90;;;;;;5043972;28;19925;-69
2022/10/26 02:06:10;;;;;;;;;;;12.20;99.90;;;;;;5030220;28;19952;-69
2022/10/26 02:08:46;;;;;;;;;;;12.20;99.90;;;;;;5034439;28;20372;-68
2022/10/26 02:11:17;;;;;;;;;;;12.20;99.90;;;;;;5023493;28;19931;-69
2022/10/26 02:13:47;;;;;;;;;;;12.30;99.90;;;;;;5033980;28;19947;-69
2022/10/26 02:16:19;;;;;;;;;;;12.30;99.90;;;;;;5034182;28;19925;-68
2022/10/26 02:18:48;;;;;;;;;;;12.30;99.90;;;;;;5035605;28;19925;-69
2022/10/26 02:21:15;;;;;;;;;;;12.30;99.90;;;;;;5054029;28;19925;-69
2022/10/26 02:23:44;;;;;;;;;;;12.20;99.90;;;;;;5038373;28;19925;-68
2022/10/26 02:26:11;;;;;;;;;;;12.30;99.90;;;;;;5052083;28;19929;-69
2022/10/26 02:28:39;;;;;;;;;;;12.20;99.90;;;;;;5052522;28;19924;-69
2022/10/26 02:31:07;;;;;;;;;;;12.20;99.90;;;;;;5053528;28;20020;-68
2022/10/26 02:33:38;;;;;;;;;;;12.20;99.90;;;;;;5052645;28;20004;-68
2022/10/26 02:36:07;;;;;;;;;;;12.20;99.90;;;;;;5014623;28;19925;-69
2022/10/26 02:38:34;;;;;;;;;;;12.20;99.90;;;;;;5028846;28;19931;-69
2022/10/26 02:41:01;;;;;;;;;;;12.20;99.90;;;;;;5038114;28;19925;-69
2022/10/26 02:43:29;;;;;;;;;;;12.20;99.90;;;;;;5037807;28;19931;-69
2022/10/26 02:45:58;;;;;;;;;;;12.20;99.90;;;;;;5038197;28;20350;-69
2022/10/26 02:48:25;;;;;;;;;;;12.20;99.90;;;;;;5038100;28;19925;-69
2022/10/26 02:50:58;;;;;;;;;;;12.20;99.90;;;;;;5034242;28;20295;-69
2022/10/26 02:53:26;;;;;;;;;;;12.30;99.90;;;;;;5044442;28;19924;-71
2022/10/26 02:55:52;;;;;;;;;;;12.20;99.90;;;;;;5036337;28;19931;-69
2022/10/26 02:58:20;;;;;;;;;;;12.30;99.90;;;;;;5033756;28;19925;-69
2022/10/26 03:00:47;;;;;;;;;;;12.30;99.90;;;;;;5033860;28;19925;-69
2022/10/26 03:03:14;;;;;;;;;;;12.30;99.90;;;;;;5040889;28;19925;-69
2022/10/26 03:05:41;;;;;;;;;;;12.20;99.90;;;;;;5054063;28;20023;-68
2022/10/26 03:08:09;;;;;;;;;;;12.30;99.90;;;;;;5053531;28;19935;-69
2022/10/26 03:10:39;;;;;;;;;;;12.30;99.90;;;;;;5052134;28;19928;-69
2022/10/26 03:13:06;;;;;;;;;;;12.30;99.90;;;;;;5050404;28;19924;-69
2022/10/26 03:15:33;;;;;;;;;;;12.40;99.90;;;;;;5037448;28;19925;-69
2022/10/26 03:17:59;;;;;;;;;;;12.30;99.90;;;;;;5033962;28;19948;-68
2022/10/26 03:20:26;;;;;;;;;;;12.40;99.90;;;;;;5037647;28;20304;-69
2022/10/26 03:22:53;;;;;;;;;;;12.40;99.90;;;;;;5033507;28;20016;-68
2022/10/26 03:25:21;;;;;;;;;;;12.40;99.90;;;;;;5033019;28;19991;-68
2022/10/26 03:27:47;;;;;;;;;;;12.40;99.90;;;;;;5028162;28;19932;-68
2022/10/26 03:30:14;;;;;;;;;;;12.50;99.90;;;;;;5021781;28;19925;-69
2022/10/26 03:32:41;;;;;;;;;;;12.50;99.90;;;;;;5022170;28;19976;-68
2022/10/26 03:35:08;;;;;;;;;;;12.50;99.90;;;;;;5026129;28;19960;-68
2022/10/26 03:37:34;;;;;;;;;;;12.50;99.90;;;;;;5046761;28;20410;-68
2022/10/26 03:40:01;;;;;;;;;;;12.60;99.90;;;;;;5052876;28;20003;-68
2022/10/26 03:42:33;;;;;;;;;;;12.60;99.90;;;;;;5052860;28;20035;-69
2022/10/26 03:44:59;;;;;;;;;;;12.60;99.90;;;;;;5039340;28;19925;-68
2022/10/26 03:47:26;;;;;;;;;;;12.60;99.90;;;;;;5041810;28;20114;-69
2022/10/26 03:49:53;;;;;;;;;;;12.60;99.90;;;;;;5040800;28;19925;-68
2022/10/26 03:52:19;;;;;;;;;;;12.60;99.90;;;;;;5041478;28;19933;-68
2022/10/26 03:54:46;;;;;;;;;;;12.60;99.90;;;;;;5042095;28;19963;-69
2022/10/26 03:57:12;;;;;;;;;;;12.70;99.90;;;;;;5048314;28;19924;-69
2022/10/26 03:59:41;;;;;;;;;;;12.70;99.90;;;;;;5033062;28;19925;-69
2022/10/26 04:02:07;;;;;;;;;;;12.70;99.90;;;;;;5040309;28;20315;-69
2022/10/26 04:04:34;;;;;;;;;;;12.70;99.90;;;;;;5053028;28;19931;-69
2022/10/26 04:07:01;;;;;;;;;;;12.70;99.90;;;;;;5052706;28;19995;-69
2022/10/26 04:09:27;;;;;;;;;;;12.60;99.90;;;;;;5052384;28;20274;-68
2022/10/26 04:11:54;;;;;;;;;;;12.50;99.90;;;;;;5052554;28;19931;-68
2022/10/26 04:14:20;;;;;;;;;;;12.50;99.90;;;;;;5052696;28;20019;-68
2022/10/26 04:16:48;;;;;;;;;;;12.50;99.90;;;;;;5050711;28;19971;-68
2022/10/26 04:19:15;;;;;;;;;;;12.40;99.90;;;;;;5052799;28;19925;-68
2022/10/26 04:21:42;;;;;;;;;;;12.50;99.90;;;;;;5052395;28;19998;-68
2022/10/26 04:24:09;;;;;;;;;;;12.50;99.90;;;;;;5053053;28;20130;-68
2022/10/26 04:26:36;;;;;;;;;;;12.50;99.90;;;;;;5049063;28;20364;-68
2022/10/26 04:29:05;;;;;;;;;;;12.50;99.90;;;;;;5043421;28;20303;-68
2022/10/26 04:31:32;;;;;;;;;;;12.50;99.90;;;;;;5032760;28;19987;-68
2022/10/26 04:34:00;;;;;;;;;;;12.50;99.90;;;;;;5032264;28;19925;-69
2022/10/26 04:36:27;;;;;;;;;;;12.60;99.90;;;;;;5032307;28;19931;-68
2022/10/26 04:38:53;;;;;;;;;;;12.60;99.90;;;;;;5032354;28;20008;-68
2022/10/26 04:41:20;;;;;;;;;;;12.70;99.90;;;;;;5036044;28;20394;-67
2022/10/26 04:43:46;;;;;;;;;;;12.60;99.90;;;;;;5046721;28;20464;-67
2022/10/26 04:46:13;;;;;;;;;;;12.70;99.90;;;;;;5035831;28;19931;-67
2022/10/26 04:48:40;;;;;;;;;;;12.70;99.90;;;;;;5036461;28;20012;-68
2022/10/26 04:51:08;;;;;;;;;;;12.70;99.90;;;;;;5035960;28;20032;-67
2022/10/26 04:53:34;;;;;;;;;;;12.80;99.90;;;;;;5036107;28;19938;-67
2022/10/26 04:56:01;;;;;;;;;;;12.80;99.90;;;;;;5035919;28;20024;-68
2022/10/26 04:58:28;;;;;;;;;;;12.80;99.90;;;;;;5047335;28;20023;-68
2022/10/26 05:00:55;;;;;;;;;;;12.90;99.90;;;;;;5035960;28;19925;-68
2022/10/26 05:03:22;;;;;;;;;;;12.90;99.90;;;;;;5035570;28;20028;-67
2022/10/26 05:05:48;;;;;;;;;;;12.90;99.90;;;;;;5041857;28;20007;-68
2022/10/26 05:08:16;;;;;;;;;;;13.00;99.90;;;;;;5039221;28;19931;-68
2022/10/26 05:10:43;;;;;;;;;;;13.20;99.90;;;;;;5048420;28;19925;-67
2022/10/26 05:13:10;;;;;;;;;;;13.30;99.90;;;;;;5054260;28;19925;-68
2022/10/26 05:15:37;;;;;;;;;;;13.50;99.90;;;;;;5047868;28;20314;-68
2022/10/26 05:18:05;;;;;;;;;;;13.60;99.90;;;;;;5051960;28;19931;-67
2022/10/26 05:20:32;;;;;;;;;;;13.80;99.90;;;;;;5045956;28;19929;-67
2022/10/26 05:23:00;;;;;;;;;;;13.90;99.90;;;;;;5048245;28;19973;-68
2022/10/26 05:25:29;;;;;;;;;;;14.00;99.90;;;;;;5055533;28;19929;-69
2022/10/26 05:27:57;;;;;;;;;;;14.10;99.90;;;;;;5053699;28;19972;-68
2022/10/26 05:30:24;;;;;;;;;;;14.20;99.90;;;;;;5046884;28;19931;-67
2022/10/26 05:32:53;;;;;;;;;;;14.30;99.90;;;;;;5041160;28;19937;-68
2022/10/26 05:35:19;;;;;;;;;;;14.50;99.90;;;;;;5048968;28;20031;-67
2022/10/26 05:37:46;;;;;;;;;;;14.60;99.90;;;;;;5034379;28;19960;-68
2022/10/26 05:40:14;;;;;;;;;;;14.60;99.90;;;;;;5031326;28;19935;-67
2022/10/26 05:42:42;;;;;;;;;;;14.60;99.90;;;;;;5036214;28;19929;-68
2022/10/26 05:45:09;;;;;;;;;;;14.60;99.90;;;;;;5034710;28;19932;-68
2022/10/26 05:47:38;;;;;;;;;;;14.60;99.90;;;;;;5034041;28;19925;-69
2022/10/26 05:50:05;;;;;;;;;;;14.60;99.90;;;;;;5036727;28;19925;-68
2022/10/26 05:52:37;;;;;;;;;;;14.60;99.90;;;;;;5035495;28;19935;-68
2022/10/26 05:55:04;;;;;;;;;;;14.60;99.90;;;;;;5035503;28;20015;-69
2022/10/26 05:57:31;;;;;;;;;;;14.50;99.90;;;;;;5030373;28;19925;-68
2022/10/26 06:00:00;;;;;;;;;;;14.50;99.90;;;;;;5036623;28;19925;-69
2022/10/26 06:02:33;;;;;;;;;;;14.50;99.90;;;;;;5033013;28;19933;-69
2022/10/26 06:05:02;;;;;;;;;;;14.50;99.90;;;;;;5044118;28;19959;-68
2022/10/26 06:07:29;;;;;;;;;;;14.50;99.90;;;;;;5040459;28;19944;-69
2022/10/26 06:09:56;;;;;;;;;;;14.40;99.90;;;;;;5041698;28;20017;-68
2022/10/26 06:12:24;;;;;;;;;;;14.40;99.90;;;;;;5032957;28;19944;-71
2022/10/26 06:14:51;;;;;;;;;;;14.40;99.90;;;;;;5032423;28;20296;-71
2022/10/26 06:17:30;;;;;;;;;;;14.40;99.90;;;;;;5042659;28;19925;-68
2022/10/26 06:20:05;;;;;;;;;;;14.40;99.90;;;;;;5037584;28;19929;-69
2022/10/26 06:22:37;;;;;;;;;;;14.50;99.90;;;;;;5034116;28;20035;-70
2022/10/26 06:25:09;;;;;;;;;;;14.50;99.90;;;;;;5027176;28;20056;-72
2022/10/26 06:27:40;;;;;;;;;;;14.50;99.90;;;;;;5032514;28;19932;-71
2022/10/26 06:30:08;;;;;;;;;;;14.60;99.90;;;;;;5035711;28;20007;-71
2022/10/26 06:32:37;;;;;;;;;;;14.60;99.90;;;;;;5038265;28;20022;-72
2022/10/26 06:35:11;;;;;;;;;;;14.70;99.90;;;;;;5038243;28;20027;-70
2022/10/26 06:37:38;;;;;;;;;;;14.70;99.90;;;;;;5034052;28;20429;-71
2022/10/26 06:40:06;;;;;;;;;;;14.70;99.90;;;;;;5033892;28;19925;-68
2022/10/26 06:42:33;;;;;;;;;;;14.70;99.90;;;;;;5032866;28;20318;-67
2022/10/26 06:45:00;;;;;;;;;;;14.60;99.90;;;;;;5033232;28;20015;-67
2022/10/26 06:47:32;;;;;;;;;;;14.60;99.90;;;;;;5046773;28;20017;-67
2022/10/26 06:50:03;;;;;;;;;;;14.60;99.90;;;;;;5041885;28;19993;-68
2022/10/26 06:52:33;;;;;;;;;;;14.60;99.90;;;;;;5042797;28;19925;-68
2022/10/26 06:55:00;;;;;;;;;;;14.60;99.90;;;;;;5053226;28;19928;-69
2022/10/26 06:57:32;;;;;;;;;;;14.50;99.90;;;;;;5039337;28;20019;-69
2022/10/26 07:00:00;;;;;;;;;;;14.50;99.90;;;;;;5048324;28;19924;-69
2022/10/26 07:02:27;;;;;;;;;;;14.50;99.90;;;;;;5047873;28;19931;-68
2022/10/26 07:04:54;;;;;;;;;;;14.50;99.90;;;;;;5041081;28;19987;-68
2022/10/26 07:07:23;;;;;;;;;;;14.50;99.90;;;;;;5024773;28;19925;-68
2022/10/26 07:09:50;;;;;;;;;;;14.50;99.90;;;;;;5044282;28;19925;-68
2022/10/26 07:12:17;;;;;;;;;;;14.60;99.90;;;;;;5032321;28;19929;-68
2022/10/26 07:14:44;;;;;;;;;;;14.60;99.90;;;;;;5025320;28;20028;-69
2022/10/26 07:17:11;;;;;;;;;;;14.60;99.90;;;;;;5027687;28;19971;-68
2022/10/26 07:19:39;;;;;;;;;;;14.60;99.90;;;;;;5032556;28;19956;-68
2022/10/26 07:22:06;;;;;;;;;;;14.70;99.90;;;;;;5032046;28;20047;-68
2022/10/26 07:24:34;;;;;;;;;;;14.70;99.90;;;;;;5047719;28;19964;-68
2022/10/26 07:27:00;;;;;;;;;;;14.80;99.90;;;;;;5041385;28;19931;-68
2022/10/26 07:29:27;;;;;;;;;;;14.80;99.90;;;;;;5032602;28;19925;-69
2022/10/26 07:31:54;;;;;;;;;;;14.90;99.90;;;;;;5034680;28;19932;-68
2022/10/26 07:34:20;;;;;;;;;;;14.90;99.90;;;;;;5033302;28;20378;-68
2022/10/26 07:36:47;;;;;;;;;;;15.00;99.90;;;;;;5032924;28;20451;-69
2022/10/26 07:39:13;;;;;;;;;;;15.00;99.90;;;;;;5036109;28;20088;-69
2022/10/26 07:41:41;;;;;;;;;;;15.10;99.90;;;;;;5031906;28;20367;-69
2022/10/26 07:44:08;;;;;;;;;;;15.20;99.90;;;;;;5034703;28;20395;-68
2022/10/26 07:46:35;;;;;;;;;;;15.20;99.90;;;;;;5039562;28;20008;-68
2022/10/26 07:49:01;;;;;;;;;;;15.20;99.90;;;;;;5036057;28;20024;-69
2022/10/26 07:51:28;;;;;;;;;;;15.30;99.90;;;;;;5039677;28;19925;-69
2022/10/26 07:53:55;;;;;;;;;;;15.30;99.90;;;;;;5027055;28;19933;-68
2022/10/26 07:56:22;;;;;;;;;;;15.50;99.90;;;;;;5027819;28;20123;-68
2022/10/26 07:58:52;;;;;;;;;;;16.80;99.90;;;;;;5038693;28;20024;-70
2022/10/26 08:01:18;;;;;;;;;;;18.50;99.90;;;;;;5037084;28;19933;-69
2022/10/26 08:03:45;;;;;;;;;;;19.60;99.90;;;;;;5033437;28;19933;-69
2022/10/26 08:06:12;;;;;;;;;;;20.50;99.90;;;;;;5031751;28;19932;-69
2022/10/26 08:08:38;;;;;;;;;;;20.90;99.90;;;;;;5039623;28;19951;-69
2022/10/26 08:11:05;;;;;;;;;;;20.70;99.90;;;;;;5040422;28;19995;-68
2022/10/26 08:13:34;;;;;;;;;;;20.90;99.90;;;;;;5037353;28;19932;-69
2022/10/26 08:16:03;;;;;;;;;;;21.10;99.90;;;;;;5032646;28;19931;-69
2022/10/26 08:18:30;;;;;;;;;;;21.40;99.90;;;;;;5036420;28;19978;-68
2022/10/26 08:21:01;;;;;;;;;;;21.50;99.90;;;;;;5051758;28;19931;-69
2022/10/26 08:23:27;;;;;;;;;;;21.70;99.90;;;;;;5038749;28;20020;-69
2022/10/26 08:25:57;;;;;;;;;;;21.20;99.90;;;;;;5030413;28;19968;-68
2022/10/26 08:28:24;;;;;;;;;;;20.80;99.90;;;;;;5031582;28;19924;-69
2022/10/26 08:30:51;;;;;;;;;;;20.20;99.90;;;;;;5045246;28;19947;-68
2022/10/26 08:33:19;;;;;;;;;;;20.60;99.90;;;;;;5032042;28;20369;-68
2022/10/26 08:35:45;;;;;;;;;;;20.40;99.90;;;;;;5037645;28;19947;-68
2022/10/26 08:38:12;;;;;;;;;;;20.50;99.90;;;;;;5039752;28;19925;-68
2022/10/26 08:40:39;;;;;;;;;;;20.60;99.90;;;;;;5031421;28;20391;-68
2022/10/26 08:43:15;;;;;;;;;;;20.80;99.90;;;;;;5031472;28;19943;-68
2022/10/26 08:45:46;;;;;;;;;;;20.60;99.90;;;;;;5036715;28;20004;-68
2022/10/26 08:48:15;;;;;;;;;;;20.60;99.90;;;;;;5031592;28;19925;-68
2022/10/26 08:50:45;;;;;;;;;;;20.80;99.90;;;;;;5031838;28;19968;-68
2022/10/26 08:53:16;;;;;;;;;;;21.20;99.90;;;;;;5031052;28;20380;-68
2022/10/26 08:55:44;;;;;;;;;;;21.10;99.90;;;;;;5034634;28;20406;-68
2022/10/26 08:58:13;;;;;;;;;;;21.10;99.90;;;;;;5036384;28;20016;-68
2022/10/26 09:00:40;;;;;;;;;;;21.50;99.90;;;;;;5033994;28;19943;-68
2022/10/26 09:03:11;;;;;;;;;;;21.20;99.90;;;;;;5030049;28;19933;-68
2022/10/26 09:05:41;;;;;;;;;;;20.40;99.90;;;;;;5026639;28;19925;-69
2022/10/26 09:08:14;;;;;;;;;;;20.00;99.90;;;;;;5029582;28;20015;-69
2022/10/26 09:10:50;;;;;;;;;;;20.20;99.90;;;;;;5025187;28;19939;-68
2022/10/26 09:13:22;;;;;;;;;;;20.30;99.90;;;;;;5030640;28;19969;-69
2022/10/26 09:15:55;;;;;;;;;;;19.90;99.90;;;;;;5036157;28;19940;-70
2022/10/26 09:18:28;;;;;;;;;;;19.30;99.90;;;;;;5035660;28;19976;-70
2022/10/26 09:20:59;;;;;;;;;;;18.60;99.90;;;;;;5032248;28;19944;-70
2022/10/26 09:23:34;;;;;;;;;;;18.20;99.90;;;;;;5030956;28;19925;-70
2022/10/26 09:26:02;;;;;;;;;;;18.20;99.90;;;;;;5031367;28;20383;-71
2022/10/26 09:28:32;;;;;;;;;;;18.10;99.90;;;;;;5031811;28;19932;-71
2022/10/26 09:30:59;;;;;;;;;;;18.00;99.90;;;;;;5045988;28;19935;-70
2022/10/26 09:33:26;;;;;;;;;;;17.90;99.90;;;;;;5031661;28;19925;-70
2022/10/26 09:35:57;;;;;;;;;;;17.90;99.90;;;;;;5046037;28;19925;-69
2022/10/26 09:38:25;;;;;;;;;;;17.90;99.90;;;;;;5037554;28;19925;-70
2022/10/26 09:40:56;;;;;;;;;;;18.00;99.90;;;;;;5042777;28;19932;-69
2022/10/26 09:43:26;;;;;;;;;;;18.00;99.90;;;;;;5046077;28;19932;-69
2022/10/26 09:45:53;;;;;;;;;;;18.10;99.90;;;;;;5050929;28;19986;-70
2022/10/26 09:48:22;;;;;;;;;;;18.20;99.90;;;;;;5042420;28;20443;-69
2022/10/26 09:50:50;;;;;;;;;;;18.20;99.90;;;;;;5045369;28;19937;-70
2022/10/26 09:53:16;;;;;;;;;;;18.20;99.90;;;;;;5032730;28;19932;-70
2022/10/26 09:55:45;;;;;;;;;;;18.30;99.90;;;;;;5033309;28;20015;-70
2022/10/26 09:58:14;;;;;;;;;;;18.20;99.90;;;;;;5034092;28;19929;-70
2022/10/26 10:00:41;;;;;;;;;;;18.30;99.90;;;;;;5038479;28;20387;-70
2022/10/26 10:03:17;;;;;;;;;;;18.30;99.90;;;;;;5038193;28;19941;-68
2022/10/26 10:05:44;;;;;;;;;;;18.40;99.90;;;;;;5034066;28;19926;-68
2022/10/26 10:08:14;;;;;;;;;;;18.50;99.90;;;;;;5040473;28;19931;-70
2022/10/26 10:10:53;;;;;;;;;;;18.60;99.90;;;;;;5045490;28;19931;-72
2022/10/26 10:13:21;;;;;;;;;;;18.70;99.90;;;;;;5036466;28;19943;-69
2022/10/26 10:15:53;;;;;;;;;;;18.70;99.90;;;;;;5037701;28;19929;-70
2022/10/26 10:18:20;;;;;;;;;;;18.80;99.90;;;;;;5030453;28;19933;-70
2022/10/26 10:20:51;;;;;;;;;;;18.80;99.90;;;;;;5034878;28;20411;-69
2022/10/26 10:23:25;;;;;;;;;;;18.70;99.90;;;;;;5034060;28;19933;-69
2022/10/26 10:25:58;;;;;;;;;;;18.60;99.90;;;;;;5038313;28;19985;-69
2022/10/26 10:28:27;;;;;;;;;;;18.70;99.90;;;;;;5039351;28;19931;-69
2022/10/26 10:30:56;;;;;;;;;;;18.70;99.90;;;;;;5030971;28;20600;-68
2022/10/26 10:33:23;;;;;;;;;;;18.80;99.90;;;;;;5034502;28;19926;-70
2022/10/26 10:35:50;;;;;;;;;;;18.80;99.90;;;;;;5041659;28;19925;-70
2022/10/26 10:38:19;;;;;;;;;;;18.80;99.90;;;;;;5037492;28;20003;-70
2022/10/26 10:40:51;;;;;;;;;;;18.80;99.90;;;;;;5040649;28;19931;-70
2022/10/26 10:43:17;;;;;;;;;;;18.80;99.90;;;;;;5038345;28;20042;-70
2022/10/26 10:45:49;;;;;;;;;;;18.80;99.90;;;;;;5039015;28;19925;-70
2022/10/26 10:48:16;;;;;;;;;;;18.90;99.90;;;;;;5036918;28;20285;-70
2022/10/26 10:50:54;;;;;;;;;;;19.00;99.90;;;;;;5033957;28;19925;-70
2022/10/26 10:53:23;;;;;;;;;;;19.10;99.90;;;;;;5034136;28;19925;-70
2022/10/26 10:55:57;;;;;;;;;;;19.10;99.90;;;;;;5032475;28;19925;-70
2022/10/26 10:58:27;;;;;;;;;;;19.20;99.90;;;;;;5041951;28;19925;-69
2022/10/26 11:00:56;;;;;;;;;;;19.30;99.90;;;;;;5048155;28;20350;-70
2022/10/26 11:03:30;;;;;;;;;;;19.30;99.90;;;;;;5034528;28;20284;-70
2022/10/26 11:06:10;;;;;;;;;;;19.30;99.90;;;;;;5038996;28;20410;-70
2022/10/26 11:08:40;;;;;;;;;;;19.20;99.90;;;;;;5038086;28;19980;-69
2022/10/26 11:11:09;;;;;;;;;;;19.30;99.90;;;;;;5028090;28;20025;-69
2022/10/26 11:13:38;;;;;;;;;;;19.30;99.90;;;;;;5041886;28;19995;-69
2022/10/26 11:16:11;;;;;;;;;;;19.30;99.90;;;;;;5032607;28;19932;-71
2022/10/26 11:18:41;;;;;;;;;;;19.30;99.90;;;;;;5030666;28;19925;-68
2022/10/26 11:21:14;;;;;;;;;;;19.20;99.90;;;;;;5037908;28;19936;-70
2022/10/26 11:23:44;;;;;;;;;;;19.20;99.90;;;;;;5035157;28;19939;-70
2022/10/26 11:26:13;;;;;;;;;;;19.20;99.90;;;;;;5036034;28;20228;-70
2022/10/26 11:28:43;;;;;;;;;;;19.30;99.90;;;;;;5040309;28;20642;-71
2022/10/26 11:31:13;;;;;;;;;;;19.20;99.90;;;;;;5037029;28;19933;-69
2022/10/26 11:33:42;;;;;;;;;;;19.20;99.90;;;;;;5032817;28;19943;-70
2022/10/26 11:36:12;;;;;;;;;;;19.30;99.90;;;;;;5040370;28;20019;-70
2022/10/26 11:38:42;;;;;;;;;;;19.30;99.90;;;;;;5036811;28;19987;-70
2022/10/26 11:41:14;;;;;;;;;;;19.40;99.90;;;;;;5029571;28;19933;-68
2022/10/26 11:43:42;;;;;;;;;;;19.50;99.90;;;;;;5033970;28;20331;-70
2022/10/26 11:46:10;;;;;;;;;;;19.50;99.90;;;;;;5032096;28;20035;-69
2022/10/26 11:48:41;;;;;;;;;;;19.60;99.90;;;;;;5036813;28;20028;-70
2022/10/26 11:51:14;;;;;;;;;;;19.70;99.90;;;;;;5030788;28;20452;-70
2022/10/26 11:53:42;;;;;;;;;;;19.70;99.90;;;;;;5032264;28;19925;-69
2022/10/26 11:56:12;;;;;;;;;;;19.70;99.90;;;;;;5039421;28;19933;-68
2022/10/26 11:58:39;;;;;;;;;;;19.60;99.90;;;;;;5033819;28;19991;-69
2022/10/26 12:01:09;;;;;;;;;;;19.60;99.90;;;;;;5033182;28;19943;-69
2022/10/26 12:03:39;;;;;;;;;;;19.60;99.90;;;;;;5034208;28;19924;-67
2022/10/26 12:06:07;;;;;;;;;;;19.60;99.90;;;;;;5036380;28;19928;-68
2022/10/26 12:08:36;;;;;;;;;;;19.60;99.90;;;;;;5030509;28;20299;-68
2022/10/26 12:11:07;;;;;;;;;;;19.60;99.90;;;;;;5031013;28;20391;-69
2022/10/26 12:13:36;;;;;;;;;;;19.70;99.90;;;;;;5031295;28;20019;-69
2022/10/26 12:16:06;;;;;;;;;;;19.70;99.90;;;;;;5035342;28;19925;-69
2022/10/26 12:18:36;;;;;;;;;;;19.80;99.90;;;;;;5032281;28;19932;-74
2022/10/26 12:21:04;;;;;;;;;;;19.90;99.90;;;;;;5040741;28;19929;-73
2022/10/26 12:23:34;;;;;;;;;;;19.80;99.90;;;;;;5031480;28;19925;-73
2022/10/26 12:26:20;;;;;;;;;;;19.80;99.90;;;;;;5050535;28;19964;-77
2022/10/26 12:28:46;;;;;;;;;;;19.90;99.90;;;;;;5035127;28;19994;-75
2022/10/26 12:31:31;;;;;;;;;;;20.00;99.90;;;;;;5034040;28;19931;-69
2022/10/26 12:33:59;;;;;;;;;;;19.90;99.90;;;;;;5031900;28;19931;-71
2022/10/26 12:36:44;;;;;;;;;;;20.00;99.90;;;;;;5031312;28;20356;-71
2022/10/26 12:39:26;;;;;;;;;;;20.00;99.90;;;;;;5036267;28;19935;-70
2022/10/26 12:41:57;;;;;;;;;;;20.10;99.90;;;;;;5039113;28;19925;-71
2022/10/26 12:44:34;;;;;;;;;;;20.20;99.90;;;;;;5012390;28;19956;-71
2022/10/26 12:47:01;;;;;;;;;;;20.20;99.90;;;;;;5045976;28;19931;-69
2022/10/26 12:49:43;;;;;;;;;;;20.10;99.90;;;;;;5049978;28;20383;-71
2022/10/26 12:52:26;;;;;;;;;;;20.10;99.90;;;;;;5045722;28;19964;-70
2022/10/26 12:55:02;;;;;;;;;;;20.10;99.90;;;;;;5032813;28;19931;-70
2022/10/26 12:57:31;;;;;;;;;;;20.10;99.90;;;;;;5031586;28;19925;-70
2022/10/26 13:00:00;;;;;;;;;;;20.20;99.90;;;;;;5027475;28;20291;-70
2022/10/26 13:02:37;;;;;;;;;;;20.20;99.90;;;;;;5028934;28;20396;-71
2022/10/26 13:05:12;;;;;;;;;;;20.10;99.90;;;;;;5034808;28;20088;-71
2022/10/26 13:07:40;;;;;;;;;;;20.10;99.90;;;;;;5041405;28;20322;-71
2022/10/26 13:10:17;;;;;;;;;;;20.20;99.90;;;;;;5047084;28;20015;-71
2022/10/26 13:12:47;;;;;;;;;;;20.30;99.90;;;;;;5035106;28;20046;-71
2022/10/26 13:15:22;;;;;;;;;;;20.30;99.90;;;;;;5053164;28;20341;-71
2022/10/26 13:17:56;;;;;;;;;;;20.30;99.90;;;;;;5040291;28;19969;-71
2022/10/26 13:20:23;;;;;;;;;;;20.20;99.90;;;;;;5051296;28;20247;-70
2022/10/26 13:22:49;;;;;;;;;;;20.30;99.90;;;;;;5052419;28;19925;-72
2022/10/26 13:25:21;;;;;;;;;;;20.50;99.90;;;;;;5048920;28;19925;-71
2022/10/26 13:27:57;;;;;;;;;;;20.50;99.90;;;;;;5034190;28;19925;-71
2022/10/26 13:30:42;;;;;;;;;;;20.50;99.90;;;;;;5046614;28;19925;-69
2022/10/26 13:33:13;;;;;;;;;;;20.50;99.90;;;;;;5043112;28;20015;-69
2022/10/26 13:35:41;;;;;;;;;;;20.50;99.90;;;;;;5046058;28;19925;-71
2022/10/26 13:38:10;;;;;;;;;;;20.60;99.90;;;;;;5038800;28;20357;-70
2022/10/26 13:40:37;;;;;;;;;;;20.50;99.90;;;;;;5039957;28;19947;-70
2022/10/26 13:43:07;;;;;;;;;;;20.40;99.90;;;;;;5042931;28;19925;-72
2022/10/26 13:45:37;;;;;;;;;;;20.40;99.90;;;;;;5041640;28;19947;-71
2022/10/26 13:48:05;;;;;;;;;;;20.30;99.90;;;;;;5035276;28;19976;-71
2022/10/26 13:50:36;;;;;;;;;;;20.30;99.90;;;;;;5038854;28;20008;-71
2022/10/26 13:53:07;;;;;;;;;;;20.30;99.90;;;;;;5043819;28;19924;-70
2022/10/26 13:55:36;;;;;;;;;;;20.40;99.90;;;;;;5037505;28;20020;-70
2022/10/26 13:58:12;;;;;;;;;;;20.50;99.90;;;;;;5038279;28;20418;-71
2022/10/26 14:00:39;;;;;;;;;;;20.50;99.90;;;;;;5038343;28;20027;-70
2022/10/26 14:03:12;;;;;;;;;;;20.40;99.90;;;;;;5044578;28;19924;-71
2022/10/26 14:05:42;;;;;;;;;;;20.40;99.90;;;;;;5030251;28;20287;-71
2022/10/26 14:08:14;;;;;;;;;;;20.30;99.90;;;;;;5039178;28;19925;-71
2022/10/26 14:10:42;;;;;;;;;;;20.20;99.90;;;;;;5014199;28;19926;-71
2022/10/26 14:13:13;;;;;;;;;;;20.20;99.90;;;;;;5033418;28;19932;-71
2022/10/26 14:15:43;;;;;;;;;;;20.30;99.90;;;;;;5038265;28;20303;-70
2022/10/26 14:18:13;;;;;;;;;;;20.30;99.90;;;;;;5034197;28;19932;-71
2022/10/26 14:20:39;;;;;;;;;;;20.20;99.90;;;;;;5050372;28;19935;-71
2022/10/26 14:23:24;;;;;;;;;;;20.20;99.90;;;;;;5037006;28;20015;-70
2022/10/26 14:25:52;;;;;;;;;;;20.10;99.90;;;;;;5033366;28;20312;-70
2022/10/26 14:28:25;;;;;;;;;;;20.00;99.90;;;;;;5038447;28;20004;-70